METAR AND TAF INFORMATION
METAR FOR LEGE
ADDS - METARS form results

(2155 UTC 20 February 2020)
Data provider http://aviationweather.gov/metar/data/
 
METAR text: LEGE 202130Z 04001KT CAVOK 08/06 Q1026
Conditions at: LEGE (GERONA/COSTA BRA, ES) observed 2130 UTC 20 February 2020
Temperature: 8.0°C (46°F)
Dewpoint: 6.0°C (43°F) [RH = 87%]
Pressure (altimeter): 30.30 inches Hg (1026.0 mb)
Winds: from the NE (40 degrees) at 1 MPH (1 knots; 0.5 m/s)
Visibility: 6 or more miles (10+ km)
Ceiling: ceiling and visibility are OK
Clouds: unknown
Weather: no significant weather observed at this time

METAR text: LEGE 202100Z 04002KT CAVOK 07/06 Q1026
Conditions at: LEGE (GERONA/COSTA BRA, ES) observed 2100 UTC 20 February 2020
Temperature: 7.0°C (45°F)
Dewpoint: 6.0°C (43°F) [RH = 93%]
Pressure (altimeter): 30.30 inches Hg (1026.0 mb)
Winds: from the NE (40 degrees) at 2 MPH (2 knots; 1.0 m/s)
Visibility: 6 or more miles (10+ km)
Ceiling: ceiling and visibility are OK
Clouds: unknown
Weather: no significant weather observed at this time

Forecast for: LEGE (GERONA/COSTA BRA, ES)
Text: TAF LEGE 201700Z 2018/2118 VRB04KT 9999 FEW030 TX18/2113Z TN04/2106Z
Forecast period: 1800 UTC 20 February 2020 to 1800 UTC 21 February 2020
Forecast type: FROM: standard forecast or significant change
Winds: variable direction winds at 5 MPH (4 knots; 2.1 m/s)
Visibility: 6 or more miles 10+ km)
Ceiling: at least 12,000 feet AGL
Clouds: few clouds at 3000 feet AGL
Weather: no significant weather forecast for this period
Text: TEMPO 2019/2024 34005KT
Forecast period: 1900 UTC 20 February 2020 to 0000 UTC 21 February 2020
Forecast type: TEMPORARY: The following changes expected for less than half the time period
Winds: from the NNW (340 degrees) at 6 MPH (5 knots; 2.6 m/s)
Visibility: missing
Ceiling: unknown
Clouds: missing
Weather: no significant weather forecast for this period
Text: TEMPO 2100/2108 1000 BCFG BKN008
Forecast period: 0000 to 0800 UTC 21 February 2020
Forecast type: TEMPORARY: The following changes expected for less than half the time period
Visibility: 0.62 miles (1.00 km)
Ceiling: 800 feet AGL
Clouds: broken clouds at 800 feet AGL
Weather: BCFG  (patches of fog)

 AIRPORT MAP

 RUNWAY INFORMATION
Runway 02 Runway length 7874 ft Runway width 148 ft
Runway elevation 403 ft Runway displaced threshold 0 ft Runway heading 16
Runway 20 Runway length 7874 ft Runway width 148 ft
Runway elevation 468 ft Runway displaced threshold 0 ft Runway heading 196

 AIRPORT FREQUENCIES
Type APP Name APP Frequency 120.9 MHZ
Type GND Name GND Frequency 121.7 MHZ
Type TWR Name TWR Frequency 118.5 MHZ

 AIRPORT NEAR NAVIGATION AIDS
Type VOR-DME Name Gerona Frequency 114100 KHZ
Type NDB Name Gerona Frequency 412 KHZ



Powered by Virtual Airlines Manager [v2.6.2]